createdAt,value
2022-09-02T00:01:56.572Z,101627.78
2022-09-02T00:04:26.640Z,101625.22
2022-09-02T00:06:55.245Z,101620.97
2022-09-02T00:09:25.978Z,101622.88
2022-09-02T00:11:56.254Z,101625.69
2022-09-02T00:14:30.025Z,101617.00
2022-09-02T00:17:00.659Z,101616.25
2022-09-02T00:19:30.501Z,101623.41
2022-09-02T00:22:00.003Z,101618.16
2022-09-02T00:24:27.888Z,101615.53
2022-09-02T00:26:56.370Z,101617.38
2022-09-02T00:29:27.229Z,101613.06
2022-09-02T00:31:55.755Z,101622.88
2022-09-02T00:34:24.523Z,101616.81
2022-09-02T00:36:52.311Z,101616.91
2022-09-02T00:39:19.842Z,101613.44
2022-09-02T00:41:47.518Z,101609.13
2022-09-02T00:44:19.215Z,101603.16
2022-09-02T00:46:47.782Z,101613.19
2022-09-02T00:49:26.891Z,101598.44
2022-09-02T00:52:06.146Z,101606.66
2022-09-02T00:54:41.157Z,101599.84
2022-09-02T00:57:19.332Z,101595.63
2022-09-02T01:00:17.900Z,101598.50
2022-09-02T01:02:53.216Z,101595.09
2022-09-02T01:05:24.391Z,101596.06
2022-09-02T01:07:54.872Z,101599.63
2022-09-02T01:10:28.466Z,101596.16
2022-09-02T01:13:15.660Z,101592.69
2022-09-02T01:15:55.135Z,101587.56
2022-09-02T01:18:31.158Z,101588.63
2022-09-02T01:21:00.618Z,101594.94
2022-09-02T01:23:32.403Z,101592.41
2022-09-02T01:26:07.141Z,101588.09
2022-09-02T01:28:35.671Z,101599.63
2022-09-02T01:31:03.378Z,101596.25
2022-09-02T01:33:33.003Z,101584.88
2022-09-02T01:36:02.889Z,101580.66
2022-09-02T01:38:32.054Z,101579.88
2022-09-02T01:41:00.324Z,101578.25
2022-09-02T01:43:29.851Z,101577.56
2022-09-02T01:45:59.560Z,101572.31
2022-09-02T01:48:30.055Z,101577.75
2022-09-02T01:51:02.309Z,101575.22
2022-09-02T01:53:31.994Z,101582.34
2022-09-02T01:56:02.373Z,101565.75
2022-09-02T01:58:33.920Z,101566.81
2022-09-02T02:01:01.450Z,101577.50
2022-09-02T02:03:30.175Z,101570.56
2022-09-02T02:05:59.942Z,101569.78
2022-09-02T02:08:29.148Z,101576.06
2022-09-02T02:10:58.706Z,101575.31
2022-09-02T02:13:26.277Z,101570.28
2022-09-02T02:15:53.928Z,101575.69
2022-09-02T02:18:21.439Z,101572.22
2022-09-02T02:20:49.726Z,101568.78
2022-09-02T02:23:18.081Z,101567.91
2022-09-02T02:25:45.592Z,101571.53
2022-09-02T02:28:14.702Z,101568.06
2022-09-02T02:30:43.169Z,101569.03
2022-09-02T02:33:11.897Z,101566.41
2022-09-02T02:35:40.974Z,101574.38
2022-09-02T02:38:08.539Z,101565.75
2022-09-02T02:40:36.256Z,101573.78
2022-09-02T02:43:05.084Z,101564.19
2022-09-02T02:45:33.277Z,101565.16
2022-09-02T02:48:00.891Z,101563.38
2022-09-02T02:50:28.382Z,101564.22
2022-09-02T02:52:56.179Z,101559.84
2022-09-02T02:55:25.808Z,101561.69
2022-09-02T02:57:54.118Z,101554.66
2022-09-02T03:00:30.011Z,101551.19
2022-09-02T03:03:02.004Z,101554.78
2022-09-02T03:05:30.045Z,101554.13
2022-09-02T03:07:58.662Z,101559.41
2022-09-02T03:10:26.991Z,101554.06
2022-09-02T03:12:54.938Z,101554.00
2022-09-02T03:15:23.586Z,101555.78
2022-09-02T03:17:55.907Z,101554.94
2022-09-02T03:20:25.774Z,101548.78
2022-09-02T03:22:59.386Z,101548.81
2022-09-02T03:25:35.338Z,101556.78
2022-09-02T03:28:05.841Z,101548.00
2022-09-02T03:30:34.951Z,101553.28
2022-09-02T03:33:05.823Z,101558.63
2022-09-02T03:35:40.028Z,101553.53
2022-09-02T03:38:09.395Z,101546.59
2022-09-02T03:40:37.768Z,101540.47
2022-09-02T03:43:05.389Z,101543.22
2022-09-02T03:45:33.128Z,101538.84
2022-09-02T03:48:05.479Z,101536.22
2022-09-02T03:50:42.077Z,101542.31
2022-09-02T03:53:19.533Z,101538.84
2022-09-02T03:55:49.521Z,101545.06
2022-09-02T03:58:19.247Z,101535.31
2022-09-02T04:00:54.863Z,101534.41
2022-09-02T04:03:24.218Z,101531.81
2022-09-02T04:05:52.470Z,101530.94
2022-09-02T04:08:23.345Z,101530.94
2022-09-02T04:10:52.513Z,101532.72
2022-09-02T04:13:20.144Z,101528.28
2022-09-02T04:15:49.425Z,101531.81
2022-09-02T04:18:20.312Z,101519.47
2022-09-02T04:20:48.003Z,101516.81
2022-09-02T04:23:17.224Z,101520.31
2022-09-02T04:25:45.747Z,101517.66
2022-09-02T04:28:15.704Z,101521.97
2022-09-02T04:30:43.567Z,101514.00
2022-09-02T04:33:14.048Z,101513.97
2022-09-02T04:35:45.298Z,101517.44
2022-09-02T04:38:17.815Z,101513.91
2022-09-02T04:40:48.090Z,101519.19
2022-09-02T04:43:18.445Z,101517.38
2022-09-02T04:45:47.982Z,101519.94
2022-09-02T04:48:19.004Z,101517.19
2022-09-02T04:50:49.214Z,101516.25
2022-09-02T04:53:18.105Z,101518.78
2022-09-02T04:55:45.735Z,101515.19
2022-09-02T04:58:16.566Z,101518.66
2022-09-02T05:00:44.672Z,101519.47
2022-09-02T05:03:13.986Z,101522.94
2022-09-02T05:05:44.006Z,101521.06
2022-09-02T05:08:14.245Z,101519.19
2022-09-02T05:10:48.265Z,101523.56
2022-09-02T05:13:16.295Z,101518.19
2022-09-02T05:15:46.610Z,101519.00
2022-09-02T05:18:15.198Z,101517.16
2022-09-02T05:20:44.575Z,101518.78
2022-09-02T05:23:13.804Z,101516.81
2022-09-02T05:25:44.204Z,101521.94
2022-09-02T05:28:12.162Z,101525.25
2022-09-02T05:30:42.927Z,101520.69
2022-09-02T05:33:13.511Z,101523.22
2022-09-02T05:35:45.611Z,101516.88
2022-09-02T05:38:17.232Z,101523.75
2022-09-02T05:40:47.134Z,101526.28
2022-09-02T05:43:14.891Z,101517.28
2022-09-02T05:45:43.261Z,101518.88
2022-09-02T05:48:30.375Z,101522.22
2022-09-02T05:50:59.101Z,101523.78
2022-09-02T05:53:29.158Z,101528.88
2022-09-02T05:55:57.298Z,101515.44
2022-09-02T05:58:26.429Z,101524.88
2022-09-02T06:00:54.730Z,101525.56
2022-09-02T06:03:22.853Z,101518.22
2022-09-02T06:06:03.140Z,101524.97
2022-09-02T06:08:36.444Z,101514.19
2022-09-02T06:11:07.215Z,101516.56
2022-09-02T06:13:38.933Z,101518.06
2022-09-02T06:16:10.679Z,101521.31
2022-09-02T06:18:43.177Z,101517.56
2022-09-02T06:21:14.092Z,101513.84
2022-09-02T06:23:44.936Z,101517.16
2022-09-02T06:26:15.010Z,101516.03
2022-09-02T06:28:42.683Z,101516.69
2022-09-02T06:31:15.875Z,101518.22
2022-09-02T06:33:47.208Z,101511.81
2022-09-02T06:36:19.207Z,101520.28
2022-09-02T06:38:50.154Z,101515.56
2022-09-02T06:41:23.927Z,101510.81
2022-09-02T06:44:00.341Z,101506.00
2022-09-02T06:46:36.140Z,101504.84
2022-09-02T06:49:07.333Z,101498.28
2022-09-02T06:51:43.325Z,101505.88
2022-09-02T06:54:15.717Z,101509.22
2022-09-02T06:56:49.214Z,101502.78
2022-09-02T06:59:20.747Z,101509.50
2022-09-02T07:01:53.545Z,101510.94
2022-09-02T07:04:41.872Z,101502.59
2022-09-02T07:07:12.797Z,101503.88
2022-09-02T07:09:47.046Z,101502.50
2022-09-02T07:12:19.597Z,101492.28
2022-09-02T07:14:56.238Z,101492.56
2022-09-02T07:17:29.902Z,101483.94
2022-09-02T07:20:05.865Z,101484.78
2022-09-02T07:22:39.687Z,101485.06
2022-09-02T07:25:09.940Z,101490.59
2022-09-02T07:27:38.450Z,101491.00
2022-09-02T07:30:07.765Z,101490.34
2022-09-02T07:32:39.542Z,101488.84
2022-09-02T07:35:09.257Z,101489.19
2022-09-02T07:37:37.410Z,101492.16
2022-09-02T07:40:11.471Z,101496.88
2022-09-02T07:42:39.526Z,101486.47
2022-09-02T07:45:09.040Z,101489.38
2022-09-02T07:47:38.491Z,101481.78
2022-09-02T07:50:18.507Z,101469.47
2022-09-02T07:52:58.427Z,101466.06
2022-09-02T07:55:30.916Z,101472.13
2022-09-02T07:58:03.457Z,101471.09
2022-09-02T08:00:31.951Z,101474.03
2022-09-02T08:05:46.995Z,101466.88
2022-09-02T08:08:17.071Z,101475.16
2022-09-02T08:10:44.513Z,101469.03
2022-09-02T08:13:12.304Z,101470.09
2022-09-02T08:15:40.282Z,101469.28
2022-09-02T08:18:08.547Z,101471.91
2022-09-02T08:20:45.082Z,101477.22
2022-09-02T08:23:25.654Z,101465.03
2022-09-02T08:26:02.570Z,101466.81
2022-09-02T08:28:32.020Z,101465.88
2022-09-02T08:30:59.710Z,101465.50
2022-09-02T08:33:27.378Z,101462.63
2022-09-02T08:35:54.792Z,101467.94
2022-09-02T08:38:22.728Z,101458.16
2022-09-02T08:40:52.200Z,101460.44
2022-09-02T08:43:40.018Z,101458.88
2022-09-02T08:46:15.092Z,101455.16
2022-09-02T08:48:52.798Z,101456.25
2022-09-02T08:51:33.828Z,101451.75
2022-09-02T08:54:21.410Z,101451.00
2022-09-02T08:56:51.590Z,101447.03
2022-09-02T08:59:27.280Z,101446.41
2022-09-02T09:02:47.591Z,101445.03
2022-09-02T09:05:56.088Z,101443.84
2022-09-02T09:09:02.441Z,101444.16
2022-09-02T09:11:57.688Z,101444.16
2022-09-02T09:14:46.194Z,101447.69
2022-09-02T09:17:37.090Z,101451.13
2022-09-02T09:20:24.475Z,101452.81
2022-09-02T09:22:57.874Z,101450.22
2022-09-02T09:25:31.882Z,101446.22
2022-09-02T09:28:01.138Z,101445.88
2022-09-02T09:30:29.872Z,101441.66
2022-09-02T09:33:00.228Z,101443.47
2022-09-02T09:35:50.458Z,101438.31
2022-09-02T09:38:38.493Z,101433.84
2022-09-02T09:41:16.069Z,101437.78
2022-09-02T09:43:43.531Z,101435.03
2022-09-02T09:46:40.896Z,101430.88
2022-09-02T09:49:08.845Z,101432.13
2022-09-02T09:51:55.944Z,101433.81
2022-09-02T09:54:27.599Z,101424.56
2022-09-02T09:56:56.415Z,101429.38
2022-09-02T09:59:42.979Z,101413.25
2022-09-02T10:02:22.365Z,101412.28
2022-09-02T10:04:53.411Z,101414.34
2022-09-02T10:07:41.423Z,101412.63
2022-09-02T10:10:21.826Z,101414.09
2022-09-02T10:12:54.230Z,101414.22
2022-09-02T10:15:56.153Z,101417.16
2022-09-02T10:18:44.821Z,101414.97
2022-09-02T10:21:49.061Z,101408.47
2022-09-02T10:24:34.537Z,101392.69
2022-09-02T10:27:11.555Z,101398.13
2022-09-02T10:29:59.062Z,101396.38
2022-09-02T10:32:53.833Z,101386.69
2022-09-02T10:35:47.122Z,101385.06
2022-09-02T10:38:47.772Z,101383.94
2022-09-02T10:44:41.074Z,101379.00
2022-09-02T10:47:29.438Z,101373.56
2022-09-02T10:50:22.777Z,101377.22
2022-09-02T10:53:49.790Z,101379.66
2022-09-02T10:56:24.226Z,101372.50
2022-09-02T11:01:44.930Z,101375.25
2022-09-02T11:04:37.776Z,101364.13
2022-09-02T11:07:13.482Z,101366.50
2022-09-02T11:09:50.578Z,101362.44
2022-09-02T11:12:36.301Z,101355.50
2022-09-02T11:15:18.028Z,101356.22
2022-09-02T11:18:04.587Z,101350.28
2022-09-02T11:21:12.734Z,101343.59
2022-09-02T11:24:22.322Z,101345.19
2022-09-02T11:27:32.165Z,101341.69
2022-09-02T11:30:10.049Z,101343.16
2022-09-02T11:32:50.521Z,101333.78
2022-09-02T11:35:28.599Z,101323.38
2022-09-02T11:38:22.867Z,101324.81
2022-09-02T11:41:35.789Z,101322.00
2022-09-02T11:44:29.488Z,101325.69
2022-09-02T11:47:26.905Z,101314.44
2022-09-02T11:50:26.539Z,101312.88
2022-09-02T11:53:12.316Z,101307.47
2022-09-02T11:56:04.489Z,101309.88
2022-09-02T11:58:40.389Z,101316.16
2022-09-02T12:01:33.693Z,101315.00
2022-09-02T12:05:10.463Z,101312.84
2022-09-02T12:07:09.062Z,101312.81
2022-09-02T12:09:47.368Z,101311.53
2022-09-02T12:12:37.413Z,101311.50
2022-09-02T12:15:05.417Z,101310.75
2022-09-02T12:17:49.950Z,101305.78
2022-09-02T12:20:36.674Z,101300.81
2022-09-02T12:23:10.296Z,101288.66
2022-09-02T12:25:49.581Z,101294.66
2022-09-02T12:28:30.934Z,101296.81
2022-09-02T12:31:01.637Z,101291.84
2022-09-02T12:33:33.996Z,101290.56
2022-09-02T12:36:04.980Z,101287.72
2022-09-02T12:38:42.766Z,101278.47
2022-09-02T12:41:22.123Z,101280.91
2022-09-02T12:44:24.230Z,101282.91
2022-09-02T12:47:11.731Z,101278.59
2022-09-02T12:50:00.185Z,101283.50
2022-09-02T12:52:34.379Z,101281.78
2022-09-02T12:55:26.064Z,101282.09
2022-09-02T12:58:08.171Z,101275.84
2022-09-02T13:01:13.728Z,101273.03
2022-09-02T13:03:54.691Z,101251.19
2022-09-02T13:06:44.658Z,101263.13
2022-09-02T13:09:49.246Z,101251.03
2022-09-02T13:13:07.568Z,101253.88
2022-09-02T13:16:18.425Z,101243.22
2022-09-02T13:19:20.821Z,101236.66
2022-09-02T13:22:31.142Z,101236.78
2022-09-02T13:25:29.095Z,101240.06
2022-09-02T13:29:03.081Z,101243.91
2022-09-02T13:31:30.500Z,101249.72
2022-09-02T13:34:14.207Z,101243.53
2022-09-02T13:36:47.006Z,101238.25
2022-09-02T13:39:18.048Z,101239.94
2022-09-02T13:41:46.475Z,101233.06
2022-09-02T13:44:22.525Z,101237.47
2022-09-02T13:47:02.352Z,101234.47
2022-09-02T13:49:41.982Z,101239.00
2022-09-02T13:52:18.898Z,101250.63
2022-09-02T13:54:54.748Z,101234.09
2022-09-02T13:57:28.931Z,101235.72
2022-09-02T13:59:58.217Z,101232.06
2022-09-02T14:02:36.027Z,101222.38
2022-09-02T14:05:20.093Z,101220.97
2022-09-02T14:07:52.452Z,101210.47
2022-09-02T14:10:27.110Z,101211.47
2022-09-02T14:12:58.034Z,101197.94
2022-09-02T14:15:29.874Z,101200.94
2022-09-02T14:18:16.038Z,101196.97
2022-09-02T14:21:10.838Z,101194.72
2022-09-02T14:23:49.417Z,101191.44
2022-09-02T14:26:45.891Z,101178.00
2022-09-02T14:29:20.014Z,101178.75
2022-09-02T14:32:20.266Z,101175.22
2022-09-02T14:35:07.542Z,101166.00
2022-09-02T14:37:50.081Z,101164.16
2022-09-02T14:40:19.617Z,101165.84
2022-09-02T14:42:56.573Z,101162.78
2022-09-02T14:45:35.273Z,101165.84
2022-09-02T14:48:23.457Z,101166.25
2022-09-02T14:51:05.111Z,101162.31
2022-09-02T14:53:37.600Z,101158.59
2022-09-02T14:56:06.653Z,101155.31
2022-09-02T14:58:34.215Z,101161.09
2022-09-02T15:01:02.343Z,101157.19
2022-09-02T15:03:36.768Z,101152.16
2022-09-02T15:06:04.566Z,101149.22
2022-09-02T15:08:32.080Z,101153.41
2022-09-02T15:11:01.081Z,101156.41
2022-09-02T15:13:33.886Z,101146.81
2022-09-02T15:16:03.248Z,101154.31
2022-09-02T15:18:31.252Z,101146.00
2022-09-02T15:20:58.676Z,101146.44
2022-09-02T15:23:27.211Z,101144.34
2022-09-02T15:25:55.870Z,101138.81
2022-09-02T15:28:23.387Z,101136.53
2022-09-02T15:30:59.291Z,101137.03
2022-09-02T15:33:28.715Z,101136.88
2022-09-02T15:36:07.382Z,101139.78
2022-09-02T15:38:37.559Z,101137.69
2022-09-02T15:41:22.077Z,101139.03
2022-09-02T15:43:51.643Z,101135.59
2022-09-02T15:46:29.906Z,101132.97
2022-09-02T15:49:03.094Z,101141.03
2022-09-02T15:51:31.992Z,101133.84
2022-09-02T15:54:09.019Z,101130.19
2022-09-02T15:56:40.878Z,101121.91
2022-09-02T15:59:18.597Z,101126.69
2022-09-02T16:01:49.394Z,101122.53
2022-09-02T16:04:17.621Z,101124.06
2022-09-02T16:06:49.014Z,101107.22
2022-09-02T16:09:18.116Z,101110.13
2022-09-02T16:11:51.952Z,101110.84
2022-09-02T16:14:23.353Z,101101.56
2022-09-02T16:16:56.446Z,101095.19
2022-09-02T16:19:29.788Z,101100.50
2022-09-02T16:21:58.296Z,101101.03
2022-09-02T16:24:26.516Z,101099.84
2022-09-02T16:26:55.009Z,101088.88
2022-09-02T16:29:27.025Z,101085.28
2022-09-02T16:32:23.647Z,101085.25
2022-09-02T16:34:45.325Z,101077.41
2022-09-02T16:37:12.904Z,101083.13
2022-09-02T16:39:40.485Z,101080.03
2022-09-02T16:42:08.006Z,101080.00
2022-09-02T16:44:35.758Z,101082.00
2022-09-02T16:47:03.625Z,101080.69
2022-09-02T16:49:32.009Z,101075.56
2022-09-02T16:52:00.686Z,101077.88
2022-09-02T16:54:33.024Z,101072.78
2022-09-02T16:57:03.627Z,101076.81
2022-09-02T16:59:31.579Z,101073.72
2022-09-02T17:01:59.585Z,101080.00
2022-09-02T17:04:27.400Z,101075.41
2022-09-02T17:06:54.972Z,101071.72
2022-09-02T17:09:22.465Z,101074.56
2022-09-02T17:11:50.014Z,101075.19
2022-09-02T17:14:21.781Z,101073.75
2022-09-02T17:16:51.242Z,101069.44
2022-09-02T17:19:27.196Z,101063.25
2022-09-02T17:21:58.393Z,101066.47
2022-09-02T17:24:28.111Z,101067.47
2022-09-02T17:26:56.279Z,101074.13
2022-09-02T17:29:48.535Z,101069.66
2022-09-02T17:32:19.826Z,101060.91
2022-09-02T17:34:50.039Z,101062.56
2022-09-02T17:37:17.811Z,101055.38
2022-09-02T17:39:46.489Z,101063.34
2022-09-02T17:42:15.257Z,101068.19
2022-09-02T17:44:44.015Z,101063.63
2022-09-02T17:47:20.146Z,101065.59
2022-09-02T17:49:48.928Z,101063.59
2022-09-02T17:52:23.361Z,101064.16
2022-09-02T17:54:54.252Z,101064.66
2022-09-02T17:57:42.461Z,101071.47
2022-09-02T18:00:16.053Z,101069.75
2022-09-02T18:03:07.385Z,101067.78
2022-09-02T18:06:00.076Z,101063.97
2022-09-02T18:09:02.818Z,101072.59
2022-09-02T18:11:30.850Z,101064.31
2022-09-02T18:14:12.302Z,101060.94
2022-09-02T18:17:14.175Z,101063.66
2022-09-02T18:20:09.382Z,101067.00
2022-09-02T18:23:05.063Z,101063.69
2022-09-02T18:25:53.211Z,101058.56
2022-09-02T18:29:09.712Z,101065.84
2022-09-02T18:32:05.853Z,101069.63
2022-09-02T18:34:33.189Z,101071.66
2022-09-02T18:37:30.252Z,101061.66
2022-09-02T18:40:31.800Z,101064.50
2022-09-02T18:43:25.268Z,101064.59
2022-09-02T18:45:58.674Z,101073.44
2022-09-02T18:48:35.954Z,101072.41
2022-09-02T18:51:35.584Z,101081.16
2022-09-02T18:54:28.532Z,101079.28
2022-09-02T18:56:58.587Z,101080.25
2022-09-02T18:59:42.866Z,101080.69
2022-09-02T19:02:46.601Z,101082.97
2022-09-02T19:05:20.749Z,101074.75
2022-09-02T19:08:20.237Z,101089.53
2022-09-02T19:10:47.976Z,101084.84
2022-09-02T19:13:16.248Z,101094.16
2022-09-02T19:15:43.910Z,101094.69
2022-09-02T19:18:12.387Z,101092.59
2022-09-02T19:20:40.051Z,101091.38
2022-09-02T19:23:12.146Z,101104.34
2022-09-02T19:25:44.583Z,101095.97
2022-09-02T19:28:16.201Z,101095.63
2022-09-02T19:30:44.039Z,101093.63
2022-09-02T19:33:16.204Z,101104.84
2022-09-02T19:35:50.631Z,101095.50
2022-09-02T19:38:18.182Z,101096.03
2022-09-02T19:40:48.914Z,101098.38
2022-09-02T19:43:16.711Z,101102.50
2022-09-02T19:45:44.871Z,101092.22
2022-09-02T19:48:12.481Z,101087.28
2022-09-02T19:50:44.191Z,101102.03
2022-09-02T19:53:30.183Z,101102.41
2022-09-02T19:56:00.433Z,101102.78
2022-09-02T19:58:28.392Z,101101.38
2022-09-02T20:00:59.174Z,101094.63
2022-09-02T20:03:28.151Z,101099.41
2022-09-02T20:05:56.182Z,101095.22
2022-09-02T20:08:30.897Z,101100.75
2022-09-02T20:11:02.257Z,101101.16
2022-09-02T20:13:40.067Z,101094.28
2022-09-02T20:16:24.244Z,101092.00
2022-09-02T20:18:53.930Z,101099.47
2022-09-02T20:21:45.539Z,101103.28
2022-09-02T20:24:24.556Z,101101.00
2022-09-02T20:27:21.489Z,101099.50
2022-09-02T20:30:11.153Z,101096.22
2022-09-02T20:33:22.029Z,101102.84
2022-09-02T20:36:23.392Z,101098.91
2022-09-02T20:39:15.222Z,101101.84
2022-09-02T20:42:08.446Z,101103.94
2022-09-02T20:45:03.621Z,101092.78
2022-09-02T20:47:55.321Z,101090.47
2022-09-02T20:50:42.459Z,101092.97
2022-09-02T20:53:44.896Z,101090.59
2022-09-02T20:56:33.701Z,101084.84
2022-09-02T20:59:39.541Z,101090.56
2022-09-02T21:02:13.495Z,101089.41
2022-09-02T21:04:50.590Z,101089.56
2022-09-02T21:07:26.352Z,101085.44
2022-09-02T21:10:23.244Z,101076.03
2022-09-02T21:12:59.940Z,101080.00
2022-09-02T21:15:39.964Z,101078.53
2022-09-02T21:18:24.060Z,101086.84
2022-09-02T21:21:09.168Z,101083.63
2022-09-02T21:23:45.342Z,101085.69
2022-09-02T21:26:23.397Z,101085.88
2022-09-02T21:29:04.510Z,101085.25
2022-09-02T21:32:36.534Z,101088.28
2022-09-02T21:35:15.925Z,101084.25
2022-09-02T21:37:45.626Z,101082.78
2022-09-02T21:40:18.723Z,101085.66
2022-09-02T21:43:16.479Z,101082.28
2022-09-02T21:46:10.345Z,101087.88
2022-09-02T21:49:03.767Z,101086.41
2022-09-02T21:51:53.534Z,101082.28
2022-09-02T21:54:43.217Z,101085.13
2022-09-02T21:57:38.668Z,101092.44
2022-09-02T22:00:12.584Z,101085.56
2022-09-02T22:03:12.919Z,101082.13
2022-09-02T22:06:12.078Z,101085.88
2022-09-02T22:09:14.443Z,101085.19
2022-09-02T22:11:57.194Z,101078.41
2022-09-02T22:14:52.742Z,101076.78
2022-09-02T22:17:51.519Z,101074.34
2022-09-02T22:20:29.270Z,101075.38
2022-09-02T22:23:15.681Z,101072.00
2022-09-02T22:25:43.993Z,101077.59
2022-09-02T22:28:36.757Z,101074.03
2022-09-02T22:31:12.587Z,101073.44
2022-09-02T22:33:55.751Z,101076.25
2022-09-02T22:36:52.121Z,101076.44
2022-09-02T22:39:33.746Z,101065.16
2022-09-02T22:42:30.472Z,101072.81
2022-09-02T22:45:33.160Z,101057.97
2022-09-02T22:48:29.770Z,101063.34
2022-09-02T22:51:24.894Z,101059.91
2022-09-02T22:53:52.376Z,101071.66
2022-09-02T22:56:35.311Z,101072.66
2022-09-02T22:59:36.518Z,101067.50
2022-09-02T23:02:31.237Z,101058.91
2022-09-02T23:05:04.400Z,101060.88
2022-09-02T23:07:32.050Z,101067.28
2022-09-02T23:10:00.840Z,101055.81
2022-09-02T23:12:45.505Z,101052.44
2022-09-02T23:15:36.860Z,101051.81
2022-09-02T23:18:42.161Z,101053.84
2022-09-02T23:21:39.126Z,101047.13
2022-09-02T23:24:46.633Z,101059.78
2022-09-02T23:27:37.144Z,101054.63
2022-09-02T23:30:05.145Z,101046.84
2022-09-02T23:33:18.247Z,101047.81
2022-09-02T23:36:11.735Z,101041.84
2022-09-02T23:39:20.601Z,101052.78
2022-09-02T23:41:48.131Z,101047.72
2022-09-02T23:44:16.614Z,101046.94
2022-09-02T23:47:08.941Z,101044.34
2022-09-02T23:50:28.309Z,101033.97
2022-09-02T23:53:11.754Z,101043.88
2022-09-02T23:55:55.196Z,101037.84
2022-09-02T23:58:52.251Z,101041.50
